Time;durP1;ratioP1;P1;durP2;ratioP2;P2;SDS_P1;SDS_P2;PMS_P1;PMS_P2;Temp;Humidity;BMP_temperature;BMP_pressure;BME280_temperature;BME280_humidity;BME280_pressure;Samples;Min_cycle;Max_cycle;Signal;HPM_P1;HPM_P2
2022/11/28 00:00:14;;;;;;;38.08;8.43;;;;;;;;;;4986369;28;20125;-74
2022/11/28 00:02:40;;;;;;;199.38;13.75;;;;;;;;;;4985398;28;20402;-73
2022/11/28 00:05:06;;;;;;;42.50;8.93;;;;;;;;;;4983342;28;20556;-74
2022/11/28 00:07:31;;;;;;;194.65;12.18;;;;;;;;;;4991168;28;20034;-73
2022/11/28 00:09:56;;;;;;;144.18;9.90;;;;;;;;;;4986410;28;20030;-73
2022/11/28 00:12:22;;;;;;;62.58;9.27;;;;;;;;;;4988565;28;20041;-73
2022/11/28 00:14:48;;;;;;;40.80;9.90;;;;;;;;;;4986954;28;20061;-73
2022/11/28 00:17:13;;;;;;;54.40;12.00;;;;;;;;;;4983009;28;20069;-73
2022/11/28 00:19:39;;;;;;;54.13;14.02;;;;;;;;;;4987517;28;20517;-73
2022/11/28 00:22:04;;;;;;;65.18;10.52;;;;;;;;;;4988572;28;20125;-73
2022/11/28 00:24:29;;;;;;;91.05;11.75;;;;;;;;;;4981508;28;20030;-73
2022/11/28 00:26:55;;;;;;;55.65;11.77;;;;;;;;;;4978141;28;20073;-73
2022/11/28 00:29:20;;;;;;;99.53;10.23;;;;;;;;;;4975860;28;20145;-73
2022/11/28 00:31:46;;;;;;;51.67;9.40;;;;;;;;;;4987990;28;20050;-73
2022/11/28 00:34:13;;;;;;;88.70;10.50;;;;;;;;;;4976916;28;20390;-73
2022/11/28 00:36:38;;;;;;;45.78;8.55;;;;;;;;;;4980306;28;21333;-74
2022/11/28 00:39:04;;;;;;;107.45;9.73;;;;;;;;;;4980801;28;20066;-73
2022/11/28 00:41:32;;;;;;;119.50;11.55;;;;;;;;;;4978959;28;20039;-74
2022/11/28 00:43:58;;;;;;;100.60;10.70;;;;;;;;;;4977967;28;20037;-74
2022/11/28 00:46:24;;;;;;;86.85;10.30;;;;;;;;;;4982242;28;20038;-73
2022/11/28 00:48:50;;;;;;;56.30;10.82;;;;;;;;;;4976055;28;20050;-73
2022/11/28 00:51:18;;;;;;;57.90;10.35;;;;;;;;;;4981695;28;20493;-73
2022/11/28 00:53:46;;;;;;;65.63;8.85;;;;;;;;;;4986178;28;20073;-73
2022/11/28 00:56:14;;;;;;;26.50;8.25;;;;;;;;;;4977664;28;20119;-73
2022/11/28 00:58:41;;;;;;;28.08;7.85;;;;;;;;;;4986052;28;20042;-73
2022/11/28 01:01:18;;;;;;;102.03;11.07;;;;;;;;;;4985147;28;20034;-73
2022/11/28 01:03:44;;;;;;;123.85;10.82;;;;;;;;;;4983356;28;20483;-74
2022/11/28 01:06:10;;;;;;;52.95;8.48;;;;;;;;;;4984529;28;20475;-73
2022/11/28 01:08:36;;;;;;;42.28;9.02;;;;;;;;;;4986398;28;20497;-73
2022/11/28 01:11:03;;;;;;;24.92;8.07;;;;;;;;;;4992384;28;20398;-73
2022/11/28 01:13:28;;;;;;;22.70;7.70;;;;;;;;;;4990865;28;20117;-73
2022/11/28 01:15:54;;;;;;;29.15;9.98;;;;;;;;;;4990008;28;20165;-73
2022/11/28 01:18:19;;;;;;;33.22;9.55;;;;;;;;;;4991394;28;20101;-73
2022/11/28 01:20:45;;;;;;;25.65;7.38;;;;;;;;;;4979865;28;20027;-73
2022/11/28 01:23:10;;;;;;;37.28;7.85;;;;;;;;;;4977989;28;20061;-74
2022/11/28 01:25:36;;;;;;;31.67;8.23;;;;;;;;;;4976194;28;20427;-73
2022/11/28 01:28:01;;;;;;;28.80;6.70;;;;;;;;;;4980973;28;20501;-73
2022/11/28 01:30:27;;;;;;;25.30;7.75;;;;;;;;;;4978782;28;20050;-73
2022/11/28 01:32:52;;;;;;;88.60;9.48;;;;;;;;;;4986466;28;20042;-73
2022/11/28 01:35:18;;;;;;;62.63;8.80;;;;;;;;;;4983399;28;20039;-73
2022/11/28 01:37:43;;;;;;;29.13;7.72;;;;;;;;;;4995508;28;20386;-75
2022/11/28 01:40:10;;;;;;;32.13;6.97;;;;;;;;;;4988443;28;20482;-73
2022/11/28 01:42:36;;;;;;;31.75;6.55;;;;;;;;;;4988937;28;20026;-73
2022/11/28 01:45:15;;;;;;;28.73;6.55;;;;;;;;;;4987957;28;20460;-73
2022/11/28 01:47:41;;;;;;;22.92;5.85;;;;;;;;;;4981225;28;20386;-73
2022/11/28 01:50:07;;;;;;;36.33;5.82;;;;;;;;;;4989182;28;20053;-73
2022/11/28 01:52:35;;;;;;;29.48;6.07;;;;;;;;;;4976913;28;20086;-73
2022/11/28 01:55:01;;;;;;;25.02;6.03;;;;;;;;;;4984340;28;20038;-74
2022/11/28 01:57:28;;;;;;;23.02;5.32;;;;;;;;;;4978715;28;20049;-73
2022/11/28 02:00:17;;;;;;;22.73;5.40;;;;;;;;;;4990919;28;20027;-73
2022/11/28 02:02:51;;;;;;;20.10;4.70;;;;;;;;;;4981785;28;20552;-73
2022/11/28 02:05:18;;;;;;;23.10;5.30;;;;;;;;;;4978384;28;20626;-73
2022/11/28 02:07:45;;;;;;;16.13;4.90;;;;;;;;;;4984243;28;20372;-75
2022/11/28 02:10:16;;;;;;;23.02;5.13;;;;;;;;;;4978820;28;20093;-73
2022/11/28 02:13:03;;;;;;;19.33;4.60;;;;;;;;;;4990958;28;20576;-73
2022/11/28 02:15:34;;;;;;;56.58;6.97;;;;;;;;;;4983463;28;20117;-73
2022/11/28 02:18:21;;;;;;;19.35;5.05;;;;;;;;;;4981855;28;20488;-74
2022/11/28 02:21:11;;;;;;;17.63;5.75;;;;;;;;;;4988343;28;20440;-73
2022/11/28 02:23:55;;;;;;;18.23;4.47;;;;;;;;;;4985573;28;20095;-73
2022/11/28 02:26:29;;;;;;;25.27;5.40;;;;;;;;;;4982466;28;20407;-73
2022/11/28 02:29:22;;;;;;;13.77;5.25;;;;;;;;;;4974469;28;20073;-73
2022/11/28 02:32:08;;;;;;;16.85;5.30;;;;;;;;;;4984549;28;20040;-73
2022/11/28 02:35:16;;;;;;;17.13;6.13;;;;;;;;;;4985728;28;20035;-73
2022/11/28 02:37:59;;;;;;;75.95;7.63;;;;;;;;;;4988467;28;20457;-73
2022/11/28 02:40:36;;;;;;;33.70;5.28;;;;;;;;;;4976784;28;20053;-73
2022/11/28 02:43:05;;;;;;;52.58;6.57;;;;;;;;;;4985326;28;20034;-73
2022/11/28 02:45:33;;;;;;;36.20;6.20;;;;;;;;;;4992746;28;20029;-73
2022/11/28 02:48:03;;;;;;;52.60;6.53;;;;;;;;;;4983578;28;20100;-73
2022/11/28 02:50:38;;;;;;;137.55;9.68;;;;;;;;;;4981144;28;20502;-73
2022/11/28 02:53:15;;;;;;;12.30;5.53;;;;;;;;;;4982586;28;20040;-73
2022/11/28 02:55:42;;;;;;;20.02;5.20;;;;;;;;;;4983585;28;20047;-73
2022/11/28 02:58:08;;;;;;;17.40;4.90;;;;;;;;;;4984684;28;20046;-73
2022/11/28 03:00:36;;;;;;;22.35;5.28;;;;;;;;;;4982927;28;20109;-74
2022/11/28 03:03:32;;;;;;;17.48;5.28;;;;;;;;;;4989904;28;20122;-75
2022/11/28 03:06:16;;;;;;;23.63;5.85;;;;;;;;;;4981722;28;20035;-73
2022/11/28 03:08:58;;;;;;;49.85;6.57;;;;;;;;;;4989569;28;20437;-73
2022/11/28 03:11:43;;;;;;;21.08;4.78;;;;;;;;;;4987822;28;20475;-73
2022/11/28 03:14:18;;;;;;;111.30;7.78;;;;;;;;;;4993103;28;20042;-73
2022/11/28 03:16:49;;;;;;;64.45;5.93;;;;;;;;;;5017241;28;20395;-73
2022/11/28 03:19:27;;;;;;;15.80;5.53;;;;;;;;;;4986266;28;20042;-73
2022/11/28 03:22:02;;;;;;;31.88;4.90;;;;;;;;;;4965420;28;20046;-73
2022/11/28 03:24:34;;;;;;;29.20;6.63;;;;;;;;;;4979161;28;20043;-74
2022/11/28 03:27:36;;;;;;;20.85;5.60;;;;;;;;;;4979890;28;20090;-73
2022/11/28 03:30:27;;;;;;;12.57;5.13;;;;;;;;;;4975744;28;20090;-73
2022/11/28 03:32:54;;;;;;;11.73;5.55;;;;;;;;;;4984288;28;20041;-73
2022/11/28 03:35:24;;;;;;;19.17;4.53;;;;;;;;;;4989198;28;20042;-73
2022/11/28 03:38:15;;;;;;;24.30;4.95;;;;;;;;;;4976057;28;20479;-73
2022/11/28 03:40:45;;;;;;;16.85;4.53;;;;;;;;;;4981541;28;20113;-73
2022/11/28 03:43:16;;;;;;;12.95;4.05;;;;;;;;;;4976430;28;20090;-73
2022/11/28 03:45:48;;;;;;;16.60;4.93;;;;;;;;;;4978209;28;20038;-73
2022/11/28 03:48:20;;;;;;;16.98;4.35;;;;;;;;;;4982318;28;20082;-72
2022/11/28 03:50:51;;;;;;;10.88;3.85;;;;;;;;;;4977529;28;20038;-72
2022/11/28 03:53:26;;;;;;;19.45;3.85;;;;;;;;;;4992255;28;20062;-72
2022/11/28 03:55:59;;;;;;;17.63;3.90;;;;;;;;;;4973352;28;20480;-73
2022/11/28 03:58:36;;;;;;;12.30;3.50;;;;;;;;;;4986253;28;20422;-72
2022/11/28 04:01:02;;;;;;;12.30;3.20;;;;;;;;;;4981557;28;20073;-72
2022/11/28 04:03:50;;;;;;;14.82;4.03;;;;;;;;;;4988688;28;20066;-72
2022/11/28 04:06:23;;;;;;;11.50;3.20;;;;;;;;;;4990417;28;20121;-73
2022/11/28 04:09:22;;;;;;;11.77;3.90;;;;;;;;;;4989981;28;20049;-73
2022/11/28 04:11:56;;;;;;;22.52;3.83;;;;;;;;;;4975035;28;20077;-75
2022/11/28 04:14:34;;;;;;;13.68;3.67;;;;;;;;;;4985789;28;20042;-73
2022/11/28 04:17:17;;;;;;;18.13;4.03;;;;;;;;;;4980975;28;20394;-72
2022/11/28 04:19:47;;;;;;;64.80;6.30;;;;;;;;;;4977968;28;20084;-72
2022/11/28 04:22:20;;;;;;;11.23;3.55;;;;;;;;;;4987824;28;20128;-73
2022/11/28 04:24:52;;;;;;;18.30;3.38;;;;;;;;;;4987917;28;20165;-72
2022/11/28 04:27:22;;;;;;;14.48;3.92;;;;;;;;;;4981579;28;20043;-73
2022/11/28 04:29:52;;;;;;;14.23;3.40;;;;;;;;;;4979680;28;20041;-72
2022/11/28 04:32:19;;;;;;;8.57;2.92;;;;;;;;;;4982394;28;20044;-73
2022/11/28 04:34:48;;;;;;;21.08;3.05;;;;;;;;;;4985218;28;20451;-72
2022/11/28 04:37:14;;;;;;;8.20;2.80;;;;;;;;;;4984185;28;20093;-73
2022/11/28 04:39:42;;;;;;;12.75;3.28;;;;;;;;;;4983557;28;20439;-73
2022/11/28 04:42:13;;;;;;;50.85;4.53;;;;;;;;;;4988247;28;20095;-73
2022/11/28 04:44:53;;;;;;;27.23;3.35;;;;;;;;;;4986320;28;20113;-73
2022/11/28 04:47:18;;;;;;;16.98;3.42;;;;;;;;;;4988566;28;20074;-73
2022/11/28 04:49:44;;;;;;;18.08;3.72;;;;;;;;;;4980603;28;20499;-73
2022/11/28 04:52:29;;;;;;;11.65;2.70;;;;;;;;;;4983893;28;20442;-72
2022/11/28 04:55:02;;;;;;;11.52;3.03;;;;;;;;;;4974244;28;20109;-73
2022/11/28 04:57:33;;;;;;;9.07;2.50;;;;;;;;;;4980333;28;20048;-72
2022/11/28 05:00:00;;;;;;;5.68;2.50;;;;;;;;;;4974436;28;20166;-72
2022/11/28 05:02:26;;;;;;;15.52;3.22;;;;;;;;;;4988257;28;20046;-72
2022/11/28 05:04:54;;;;;;;10.25;3.13;;;;;;;;;;4983961;28;20031;-73
2022/11/28 05:07:20;;;;;;;13.70;2.67;;;;;;;;;;4982798;28;20434;-72
2022/11/28 05:09:46;;;;;;;14.82;2.78;;;;;;;;;;4980782;28;20042;-73
2022/11/28 05:12:11;;;;;;;10.52;2.65;;;;;;;;;;4989045;28;20085;-73
2022/11/28 05:14:36;;;;;;;17.77;2.72;;;;;;;;;;4987822;28;20039;-73
2022/11/28 05:17:02;;;;;;;18.90;3.45;;;;;;;;;;4989969;28;20069;-73
2022/11/28 05:19:27;;;;;;;8.15;3.03;;;;;;;;;;4987226;28;20105;-73
2022/11/28 05:21:53;;;;;;;18.17;3.13;;;;;;;;;;4990885;28;20034;-73
2022/11/28 05:24:18;;;;;;;24.70;3.42;;;;;;;;;;4987046;28;20042;-72
2022/11/28 05:26:43;;;;;;;18.15;3.20;;;;;;;;;;4984116;28;20044;-73
2022/11/28 05:29:09;;;;;;;13.73;2.83;;;;;;;;;;4976746;28;20057;-74
2022/11/28 05:31:34;;;;;;;29.63;3.25;;;;;;;;;;4982426;28;20121;-73
2022/11/28 05:34:00;;;;;;;58.53;4.30;;;;;;;;;;4973890;28;20093;-74
2022/11/28 05:36:25;;;;;;;29.48;3.38;;;;;;;;;;4992700;28;20039;-73
2022/11/28 05:38:50;;;;;;;5.18;2.83;;;;;;;;;;4982137;28;20525;-73
2022/11/28 05:41:19;;;;;;;12.15;3.00;;;;;;;;;;4987694;28;20042;-72
2022/11/28 05:43:44;;;;;;;13.60;2.75;;;;;;;;;;4980421;28;20027;-73
2022/11/28 05:46:10;;;;;;;10.30;3.45;;;;;;;;;;4981946;28;20045;-73
2022/11/28 05:48:35;;;;;;;8.80;3.15;;;;;;;;;;4982212;28;20081;-72
2022/11/28 05:51:05;;;;;;;15.63;2.60;;;;;;;;;;4990985;28;20080;-72
2022/11/28 05:53:31;;;;;;;15.85;2.95;;;;;;;;;;4974776;28;20115;-72
2022/11/28 05:55:57;;;;;;;14.18;2.90;;;;;;;;;;4984777;28;20038;-73
2022/11/28 05:58:22;;;;;;;10.68;2.78;;;;;;;;;;4976960;28;20041;-73
2022/11/28 06:00:47;;;;;;;10.75;2.75;;;;;;;;;;4983112;28;20062;-73
2022/11/28 06:03:13;;;;;;;7.53;2.05;;;;;;;;;;4984297;28;20038;-73
2022/11/28 06:05:41;;;;;;;11.88;2.90;;;;;;;;;;4988859;28;20047;-73
2022/11/28 06:08:06;;;;;;;15.40;2.83;;;;;;;;;;4985431;28;20557;-72
2022/11/28 06:10:32;;;;;;;17.25;3.28;;;;;;;;;;5020771;28;20113;-73
2022/11/28 06:12:57;;;;;;;25.50;3.10;;;;;;;;;;4982212;28;20038;-73
2022/11/28 06:15:23;;;;;;;92.85;4.75;;;;;;;;;;4989742;28;20042;-73
2022/11/28 06:17:48;;;;;;;54.08;4.28;;;;;;;;;;4981493;28;20052;-73
2022/11/28 06:20:13;;;;;;;21.02;2.78;;;;;;;;;;4980935;28;20070;-73
2022/11/28 06:22:39;;;;;;;15.43;2.85;;;;;;;;;;4982208;28;20430;-72
2022/11/28 06:25:04;;;;;;;11.40;2.78;;;;;;;;;;4979169;28;20049;-73
2022/11/28 06:27:30;;;;;;;5.88;2.13;;;;;;;;;;4988006;28;20043;-73
2022/11/28 06:29:55;;;;;;;10.18;3.00;;;;;;;;;;4985385;28;20117;-73
2022/11/28 06:32:20;;;;;;;15.05;2.42;;;;;;;;;;4989432;28;20114;-73
2022/11/28 06:34:46;;;;;;;8.02;2.53;;;;;;;;;;4986738;28;20403;-73
2022/11/28 06:37:11;;;;;;;21.90;3.30;;;;;;;;;;4990721;28;20073;-73
2022/11/28 06:39:37;;;;;;;22.50;3.22;;;;;;;;;;4986605;28;20383;-73
2022/11/28 06:42:02;;;;;;;23.50;2.75;;;;;;;;;;4991124;28;20049;-73
2022/11/28 06:44:28;;;;;;;18.58;2.83;;;;;;;;;;4984415;28;20039;-72
2022/11/28 06:46:54;;;;;;;55.47;3.83;;;;;;;;;;4990376;28;20380;-73
2022/11/28 06:49:19;;;;;;;18.63;3.00;;;;;;;;;;4984451;28;20069;-73
2022/11/28 06:51:44;;;;;;;9.10;2.67;;;;;;;;;;4984084;28;20388;-72
2022/11/28 06:54:10;;;;;;;10.73;2.53;;;;;;;;;;4980440;28;20031;-74
2022/11/28 06:56:35;;;;;;;15.27;3.00;;;;;;;;;;4968103;28;20508;-73
2022/11/28 06:59:01;;;;;;;11.63;2.28;;;;;;;;;;4985099;28;20479;-73
2022/11/28 07:01:28;;;;;;;16.80;2.92;;;;;;;;;;4989804;28;20042;-73
2022/11/28 07:03:54;;;;;;;8.88;2.50;;;;;;;;;;4991203;28;20375;-73
2022/11/28 07:06:20;;;;;;;14.50;2.53;;;;;;;;;;4985507;28;20046;-73
2022/11/28 07:08:47;;;;;;;15.73;2.45;;;;;;;;;;4993541;28;20097;-73
2022/11/28 07:11:24;;;;;;;10.68;2.25;;;;;;;;;;4990713;28;20053;-74
2022/11/28 07:13:50;;;;;;;13.90;2.50;;;;;;;;;;4984480;28;20041;-73
2022/11/28 07:16:27;;;;;;;12.48;2.58;;;;;;;;;;4978578;28;20434;-73
2022/11/28 07:18:53;;;;;;;7.68;2.50;;;;;;;;;;4982226;28;20104;-74
2022/11/28 07:21:19;;;;;;;7.28;2.00;;;;;;;;;;4979162;28;20459;-72
2022/11/28 07:23:45;;;;;;;12.75;1.95;;;;;;;;;;4985534;28;20077;-72
2022/11/28 07:26:12;;;;;;;11.82;2.47;;;;;;;;;;4978428;28;20088;-73
2022/11/28 07:28:38;;;;;;;27.58;2.85;;;;;;;;;;4984184;28;20035;-73
2022/11/28 07:31:09;;;;;;;21.95;2.97;;;;;;;;;;4983082;28;20042;-73
2022/11/28 07:33:36;;;;;;;25.88;2.50;;;;;;;;;;4982186;28;20486;-72
2022/11/28 07:36:15;;;;;;;17.27;2.63;;;;;;;;;;4988875;28;20053;-73
2022/11/28 07:38:41;;;;;;;8.90;1.98;;;;;;;;;;4964994;28;20038;-73
2022/11/28 07:41:11;;;;;;;25.83;2.70;;;;;;;;;;4982148;28;20501;-72
2022/11/28 07:43:37;;;;;;;13.95;2.20;;;;;;;;;;4983174;28;20041;-72
2022/11/28 07:46:08;;;;;;;14.45;2.60;;;;;;;;;;4982169;28;20026;-73
2022/11/28 07:48:34;;;;;;;5.00;2.45;;;;;;;;;;4983852;28;20129;-72
2022/11/28 07:51:04;;;;;;;8.48;2.28;;;;;;;;;;4989701;28;20030;-73
2022/11/28 07:53:29;;;;;;;18.65;2.42;;;;;;;;;;4981666;28;20117;-72
2022/11/28 07:55:55;;;;;;;16.00;2.40;;;;;;;;;;4985190;28;20086;-73
2022/11/28 07:58:21;;;;;;;8.27;2.50;;;;;;;;;;4988743;28;20045;-72
2022/11/28 08:00:47;;;;;;;10.45;2.38;;;;;;;;;;4990542;28;20030;-72
2022/11/28 08:03:12;;;;;;;11.20;1.90;;;;;;;;;;4972934;28;20959;-74
2022/11/28 08:05:37;;;;;;;16.70;2.25;;;;;;;;;;4983540;28;20026;-73
2022/11/28 08:08:03;;;;;;;11.95;2.50;;;;;;;;;;4989864;28;20056;-73
2022/11/28 08:10:28;;;;;;;5.00;1.63;;;;;;;;;;4993641;28;20049;-73
2022/11/28 08:12:54;;;;;;;5.90;1.75;;;;;;;;;;4980670;28;20026;-74
2022/11/28 08:15:19;;;;;;;6.95;2.08;;;;;;;;;;4985730;28;20363;-73
2022/11/28 08:17:45;;;;;;;12.10;2.97;;;;;;;;;;4982521;28;20105;-73
2022/11/28 08:20:10;;;;;;;22.40;3.08;;;;;;;;;;4981345;28;20038;-73
2022/11/28 08:22:36;;;;;;;10.40;2.60;;;;;;;;;;4963956;28;20102;-74
2022/11/28 08:25:01;;;;;;;14.18;2.30;;;;;;;;;;4982635;28;20118;-74
2022/11/28 08:27:27;;;;;;;12.18;2.58;;;;;;;;;;4981133;28;20057;-73
2022/11/28 08:29:52;;;;;;;20.25;2.60;;;;;;;;;;4974615;28;20943;-73
2022/11/28 08:32:17;;;;;;;10.95;2.15;;;;;;;;;;4979661;28;20570;-73
2022/11/28 08:34:43;;;;;;;9.77;2.53;;;;;;;;;;4981026;28;20081;-72
2022/11/28 08:37:08;;;;;;;12.02;2.38;;;;;;;;;;4984135;28;20042;-73
2022/11/28 08:39:33;;;;;;;13.23;2.10;;;;;;;;;;4974712;28;20042;-73
2022/11/28 08:41:59;;;;;;;29.80;2.65;;;;;;;;;;4967981;28;20034;-73
2022/11/28 08:44:25;;;;;;;92.78;4.85;;;;;;;;;;4977864;28;20034;-73
2022/11/28 08:46:51;;;;;;;23.55;2.58;;;;;;;;;;4977348;28;20042;-73
2022/11/28 08:49:17;;;;;;;18.50;2.95;;;;;;;;;;4981699;28;20034;-73
2022/11/28 08:51:42;;;;;;;14.23;2.40;;;;;;;;;;4977760;28;20115;-73
2022/11/28 08:54:07;;;;;;;14.88;2.60;;;;;;;;;;4977276;28;20123;-73
2022/11/28 08:56:33;;;;;;;24.25;7.15;;;;;;;;;;4985571;28;20029;-73
2022/11/28 08:58:58;;;;;;;51.72;12.68;;;;;;;;;;4976213;28;20062;-72
2022/11/28 09:01:25;;;;;;;50.10;13.75;;;;;;;;;;4978593;28;20042;-73
2022/11/28 09:03:51;;;;;;;33.92;13.48;;;;;;;;;;4974782;28;20024;-72
2022/11/28 09:06:17;;;;;;;43.65;14.93;;;;;;;;;;4971654;28;20418;-73
2022/11/28 09:08:43;;;;;;;87.35;20.08;;;;;;;;;;4977596;28;20119;-73
2022/11/28 09:11:10;;;;;;;93.18;18.80;;;;;;;;;;4979153;28;20121;-73
2022/11/28 09:13:37;;;;;;;136.90;23.48;;;;;;;;;;4976928;28;20550;-73
2022/11/28 09:16:03;;;;;;;87.80;22.05;;;;;;;;;;4983255;28;20129;-73
2022/11/28 09:18:28;;;;;;;88.85;22.35;;;;;;;;;;4965643;28;20467;-72
2022/11/28 09:21:02;;;;;;;79.63;23.25;;;;;;;;;;4982439;28;20038;-72
2022/11/28 09:23:28;;;;;;;90.22;22.85;;;;;;;;;;4952534;28;20034;-73
2022/11/28 09:25:54;;;;;;;57.53;17.85;;;;;;;;;;4974541;28;20054;-75
2022/11/28 09:28:20;;;;;;;46.60;10.35;;;;;;;;;;4958054;28;20691;-73
2022/11/28 09:30:45;;;;;;;27.35;4.60;;;;;;;;;;4978771;28;20047;-73
2022/11/28 09:33:12;;;;;;;11.18;2.50;;;;;;;;;;4984065;28;20072;-73
2022/11/28 09:35:38;;;;;;;16.00;2.60;;;;;;;;;;4983829;28;20049;-72
2022/11/28 09:38:04;;;;;;;19.67;2.75;;;;;;;;;;4978298;28;20053;-73
2022/11/28 09:40:36;;;;;;;19.85;2.75;;;;;;;;;;4982529;28;20038;-75
2022/11/28 09:43:03;;;;;;;9.88;2.30;;;;;;;;;;4978581;28;20042;-75
2022/11/28 09:45:30;;;;;;;18.65;3.22;;;;;;;;;;4976996;28;20042;-73
2022/11/28 09:48:01;;;;;;;22.10;3.08;;;;;;;;;;4969230;28;20054;-75
2022/11/28 09:50:33;;;;;;;25.77;3.25;;;;;;;;;;4975737;28;20125;-74
2022/11/28 09:53:22;;;;;;;17.77;2.80;;;;;;;;;;4971180;28;20766;-73
2022/11/28 09:55:57;;;;;;;72.72;4.88;;;;;;;;;;4982088;28;20053;-73
2022/11/28 09:59:04;;;;;;;19.15;3.30;;;;;;;;;;4983769;28;20057;-73
2022/11/28 10:01:29;;;;;;;11.85;2.88;;;;;;;;;;4954830;28;20047;-73
2022/11/28 10:04:23;;;;;;;10.10;2.53;;;;;;;;;;4956956;28;20043;-73
2022/11/28 10:07:11;;;;;;;14.57;2.88;;;;;;;;;;4972692;28;20046;-73
2022/11/28 10:09:49;;;;;;;16.05;2.72;;;;;;;;;;4977749;28;20116;-74
2022/11/28 10:12:25;;;;;;;11.05;2.55;;;;;;;;;;4979197;28;20505;-75
2022/11/28 10:15:08;;;;;;;11.80;2.80;;;;;;;;;;4977348;28;20046;-73
2022/11/28 10:17:49;;;;;;;13.20;2.88;;;;;;;;;;4971444;28;20137;-73
2022/11/28 10:20:27;;;;;;;12.23;3.40;;;;;;;;;;4976225;28;20380;-73
2022/11/28 10:22:57;;;;;;;14.65;2.80;;;;;;;;;;4981943;28;20053;-73
2022/11/28 10:25:36;;;;;;;16.75;3.15;;;;;;;;;;4982081;28;20047;-73
2022/11/28 10:28:04;;;;;;;16.83;3.25;;;;;;;;;;4984251;28;20045;-73
2022/11/28 10:30:32;;;;;;;9.70;2.75;;;;;;;;;;4976593;28;20045;-73
2022/11/28 10:33:26;;;;;;;13.38;2.97;;;;;;;;;;4973051;28;20042;-73
2022/11/28 10:35:57;;;;;;;14.55;3.78;;;;;;;;;;4979533;28;20046;-73
2022/11/28 10:38:26;;;;;;;12.55;2.83;;;;;;;;;;4979860;28;20053;-73
2022/11/28 10:40:58;;;;;;;9.88;2.90;;;;;;;;;;4977835;28;20498;-72
2022/11/28 10:43:36;;;;;;;6.72;2.47;;;;;;;;;;4968707;28;20133;-75
2022/11/28 10:46:04;;;;;;;6.30;2.50;;;;;;;;;;4979552;28;20092;-73
2022/11/28 10:48:39;;;;;;;6.43;2.10;;;;;;;;;;4986220;28;20054;-73
2022/11/28 10:51:26;;;;;;;8.52;2.67;;;;;;;;;;4988294;28;20039;-73
2022/11/28 10:54:26;;;;;;;11.77;4.05;;;;;;;;;;4962056;28;20046;-74
2022/11/28 10:57:10;;;;;;;16.88;3.15;;;;;;;;;;4980933;28;20058;-74
2022/11/28 10:59:50;;;;;;;10.65;2.17;;;;;;;;;;4972826;28;20046;-73
2022/11/28 11:02:50;;;;;;;13.18;3.08;;;;;;;;;;4965378;28;20047;-73
2022/11/28 11:05:28;;;;;;;12.90;2.60;;;;;;;;;;4966483;28;20102;-73
2022/11/28 11:07:56;;;;;;;11.35;2.40;;;;;;;;;;4974238;28;20053;-73
2022/11/28 11:10:34;;;;;;;12.73;2.50;;;;;;;;;;4974280;28;20038;-73
2022/11/28 11:13:22;;;;;;;7.95;2.45;;;;;;;;;;4977539;28;20038;-73
2022/11/28 11:15:59;;;;;;;9.20;3.20;;;;;;;;;;4981769;28;20483;-74
2022/11/28 11:18:37;;;;;;;20.85;3.22;;;;;;;;;;4975874;28;20065;-73
2022/11/28 11:21:17;;;;;;;11.98;2.80;;;;;;;;;;4982470;28;20046;-73
2022/11/28 11:23:43;;;;;;;22.15;3.83;;;;;;;;;;4980518;28;20112;-73
2022/11/28 11:26:27;;;;;;;12.70;2.95;;;;;;;;;;4983712;28;20874;-73
2022/11/28 11:28:53;;;;;;;9.47;3.00;;;;;;;;;;4981905;28;20034;-74
2022/11/28 11:31:20;;;;;;;15.82;3.53;;;;;;;;;;4975467;28;20038;-74
2022/11/28 11:33:46;;;;;;;12.68;2.70;;;;;;;;;;4982811;28;20034;-73
2022/11/28 11:36:33;;;;;;;11.38;2.50;;;;;;;;;;4970870;28;20637;-73
2022/11/28 11:39:11;;;;;;;20.77;2.65;;;;;;;;;;4969082;28;20487;-74
2022/11/28 11:41:50;;;;;;;9.27;2.00;;;;;;;;;;4970147;28;20063;-73
2022/11/28 11:44:24;;;;;;;21.15;3.55;;;;;;;;;;4970184;28;20035;-73
2022/11/28 11:46:50;;;;;;;13.45;2.47;;;;;;;;;;4976847;28;20052;-73
2022/11/28 11:49:48;;;;;;;10.88;2.30;;;;;;;;;;4986407;28;20649;-73
2022/11/28 11:52:17;;;;;;;11.68;1.90;;;;;;;;;;4975946;28;20113;-73
2022/11/28 11:54:46;;;;;;;14.82;2.67;;;;;;;;;;4976669;28;20045;-73
2022/11/28 11:57:13;;;;;;;12.35;2.28;;;;;;;;;;4979227;28;20037;-73
2022/11/28 11:59:45;;;;;;;15.35;2.97;;;;;;;;;;4981847;28;20038;-73
2022/11/28 12:02:22;;;;;;;22.58;2.60;;;;;;;;;;4984375;28;20070;-73
2022/11/28 12:04:53;;;;;;;13.65;2.20;;;;;;;;;;4970230;28;20042;-73
2022/11/28 12:07:29;;;;;;;7.90;1.80;;;;;;;;;;4977113;28;20061;-72
2022/11/28 12:09:55;;;;;;;14.15;1.60;;;;;;;;;;4975630;28;20098;-73
2022/11/28 12:12:28;;;;;;;7.68;1.25;;;;;;;;;;4983106;28;20050;-74
2022/11/28 12:14:54;;;;;;;10.82;1.30;;;;;;;;;;4975832;28;20058;-73
2022/11/28 12:17:31;;;;;;;13.85;1.60;;;;;;;;;;4975650;28;20097;-73
2022/11/28 12:20:34;;;;;;;12.32;1.20;;;;;;;;;;4977766;28;20034;-73
2022/11/28 12:23:09;;;;;;;11.25;1.42;;;;;;;;;;4972613;28;20145;-73
2022/11/28 12:25:56;;;;;;;6.38;1.13;;;;;;;;;;4985536;28;20050;-73
2022/11/28 12:28:30;;;;;;;8.50;1.30;;;;;;;;;;4982791;28;20410;-73
2022/11/28 12:31:33;;;;;;;5.22;1.15;;;;;;;;;;4970855;28;20394;-73
2022/11/28 12:34:39;;;;;;;16.30;1.40;;;;;;;;;;4972793;28;20030;-73
2022/11/28 12:37:33;;;;;;;6.70;1.42;;;;;;;;;;4974430;28;20113;-74
2022/11/28 12:40:17;;;;;;;5.97;1.10;;;;;;;;;;4972680;28;20042;-73
2022/11/28 12:42:54;;;;;;;6.35;1.42;;;;;;;;;;4970092;28;20074;-73
2022/11/28 12:45:38;;;;;;;5.80;1.70;;;;;;;;;;4975156;28;20090;-73
2022/11/28 12:48:07;;;;;;;;;;;;;;;;;;4964147;28;20051;-73
2022/11/28 12:50:41;;;;;;;8.70;1.20;;;;;;;;;;4975197;28;19921;-73
2022/11/28 12:53:30;;;;;;;11.57;1.33;;;;;;;;;;4965954;28;20043;-73
2022/11/28 12:56:08;;;;;;;11.05;1.20;;;;;;;;;;4981911;28;20502;-73
2022/11/28 12:59:05;;;;;;;7.40;0.80;;;;;;;;;;4978425;28;20031;-73
2022/11/28 13:01:55;;;;;;;7.68;1.45;;;;;;;;;;4973759;28;20034;-73
2022/11/28 13:04:26;;;;;;;2.33;0.90;;;;;;;;;;4965109;28;20038;-73
2022/11/28 13:07:22;;;;;;;13.48;1.48;;;;;;;;;;4966301;28;20050;-73
2022/11/28 13:10:07;;;;;;;7.75;1.25;;;;;;;;;;4928577;28;20435;-73
2022/11/28 13:13:11;;;;;;;6.60;1.35;;;;;;;;;;4973999;28;20035;-73
2022/11/28 13:15:58;;;;;;;10.35;1.23;;;;;;;;;;4969085;28;20131;-73
2022/11/28 13:18:27;;;;;;;10.27;1.42;;;;;;;;;;4975167;28;20455;-75
2022/11/28 13:21:01;;;;;;;7.90;0.93;;;;;;;;;;4977972;28;20437;-73
2022/11/28 13:23:42;;;;;;;8.82;1.20;;;;;;;;;;4982191;28;20046;-73
2022/11/28 13:26:31;;;;;;;5.68;1.35;;;;;;;;;;4951314;28;20034;-73
2022/11/28 13:29:24;;;;;;;10.18;1.20;;;;;;;;;;4942627;28;20050;-75
2022/11/28 13:32:17;;;;;;;8.80;1.30;;;;;;;;;;4979480;28;20106;-74
2022/11/28 13:34:42;;;;;;;5.35;0.90;;;;;;;;;;4992005;28;20050;-73
2022/11/28 13:37:15;;;;;;;7.95;1.10;;;;;;;;;;4980871;28;20049;-73
2022/11/28 13:39:51;;;;;;;11.75;1.10;;;;;;;;;;4985644;28;20031;-73
2022/11/28 13:42:19;;;;;;;6.75;0.85;;;;;;;;;;4992216;28;20050;-74
2022/11/28 13:44:58;;;;;;;5.90;0.93;;;;;;;;;;4969058;28;20046;-73
2022/11/28 13:47:33;;;;;;;8.73;1.40;;;;;;;;;;4985272;28;20050;-73
2022/11/28 13:50:38;;;;;;;6.82;1.13;;;;;;;;;;4991534;28;20030;-73
2022/11/28 13:53:06;;;;;;;4.40;1.10;;;;;;;;;;4948289;29;20051;-73
2022/11/28 13:55:36;;;;;;;5.00;1.40;;;;;;;;;;4977989;28;20061;-73
2022/11/28 13:58:25;;;;;;;11.98;1.48;;;;;;;;;;4985386;28;20030;-73
2022/11/28 14:01:10;;;;;;;10.73;1.50;;;;;;;;;;4973967;28;20062;-73
2022/11/28 14:04:00;;;;;;;13.13;1.73;;;;;;;;;;5004877;28;20061;-73
2022/11/28 14:06:28;;;;;;;12.35;2.13;;;;;;;;;;4977680;28;20502;-74
2022/11/28 14:09:17;;;;;;;6.72;1.45;;;;;;;;;;4980780;28;20092;-73
2022/11/28 14:12:07;;;;;;;5.88;1.30;;;;;;;;;;4972731;28;20047;-73
2022/11/28 14:14:35;;;;;;;6.55;1.60;;;;;;;;;;5001352;28;20043;-73
2022/11/28 14:17:16;;;;;;;12.05;2.92;;;;;;;;;;4978898;28;20537;-73
2022/11/28 14:19:44;;;;;;;7.55;2.72;;;;;;;;;;4978224;28;20049;-73
2022/11/28 14:22:21;;;;;;;6.75;1.70;;;;;;;;;;4982311;28;20038;-73
2022/11/28 14:25:01;;;;;;;11.55;2.28;;;;;;;;;;4978157;28;20046;-73
2022/11/28 14:27:31;;;;;;;7.82;1.90;;;;;;;;;;4978116;28;20050;-73
2022/11/28 14:29:57;;;;;;;6.10;2.00;;;;;;;;;;4976536;28;20042;-73
2022/11/28 14:32:39;;;;;;;7.90;2.00;;;;;;;;;;4976150;28;20034;-73
2022/11/28 14:35:14;;;;;;;7.00;2.03;;;;;;;;;;4979961;28;20034;-73
2022/11/28 14:37:48;;;;;;;11.32;1.95;;;;;;;;;;4985764;28;20110;-73
2022/11/28 14:40:55;;;;;;;9.65;1.88;;;;;;;;;;4981964;28;20054;-74
2022/11/28 14:43:28;;;;;;;6.15;1.83;;;;;;;;;;4969186;28;20035;-73
2022/11/28 14:46:15;;;;;;;7.20;2.13;;;;;;;;;;4981977;28;20463;-73
2022/11/28 14:49:04;;;;;;;4.80;1.65;;;;;;;;;;4982392;28;20047;-73
2022/11/28 14:51:44;;;;;;;11.50;2.28;;;;;;;;;;4976534;28;20491;-73
2022/11/28 14:54:28;;;;;;;8.02;2.85;;;;;;;;;;4977285;28;20113;-73
2022/11/28 14:56:54;;;;;;;35.85;10.13;;;;;;;;;;4987980;28;20039;-73
2022/11/28 14:59:25;;;;;;;9.95;2.55;;;;;;;;;;4991576;28;20471;-73
2022/11/28 15:02:02;;;;;;;11.60;2.35;;;;;;;;;;4989368;28;20049;-73